createdAt,value
2023-05-10T00:01:38.941Z,0.1204
2023-05-10T00:11:35.849Z,0.1338
2023-05-10T00:21:35.328Z,0.1475
2023-05-10T00:31:35.149Z,0.1616
2023-05-10T00:41:35.477Z,0.1759
2023-05-10T00:51:35.068Z,0.1905
2023-05-10T01:01:35.049Z,0.2052
2023-05-10T01:11:35.165Z,0.2199
2023-05-10T01:21:35.357Z,0.2346
2023-05-10T01:31:35.328Z,0.2494
2023-05-10T01:41:35.153Z,0.2641
2023-05-10T01:51:35.364Z,0.2788
2023-05-10T02:01:34.981Z,0.2935
2023-05-10T02:11:35.087Z,0.3082
2023-05-10T02:21:35.651Z,0.3230
2023-05-10T02:31:35.607Z,0.3377
2023-05-10T02:41:35.484Z,0.3524
2023-05-10T02:51:35.042Z,0.3671
2023-05-10T03:01:35.148Z,0.3819
2023-05-10T03:11:34.998Z,0.3966
2023-05-10T03:21:34.989Z,0.4113
2023-05-10T03:31:35.060Z,0.4260
2023-05-10T03:41:35.021Z,0.4407
2023-05-10T03:51:35.135Z,0.4555
2023-05-10T04:01:35.032Z,0.4702
2023-05-10T04:11:35.188Z,0.4849
2023-05-10T04:21:35.252Z,0.4996
2023-05-10T04:31:35.007Z,0.5144
2023-05-10T04:41:35.036Z,0.5291
2023-05-10T04:51:35.898Z,0.5438
2023-05-10T05:01:35.094Z,0.5585
2023-05-10T05:11:35.090Z,0.5732
2023-05-10T05:21:35.188Z,0.5880
2023-05-10T05:31:35.037Z,0.6027
2023-05-10T05:41:35.539Z,0.6174
2023-05-10T05:51:35.050Z,0.6321
2023-05-10T06:01:35.528Z,0.6469
2023-05-10T06:11:35.228Z,0.6616
2023-05-10T06:21:35.167Z,0.6763
2023-05-10T06:31:35.112Z,0.6910
2023-05-10T06:41:35.187Z,0.7057
2023-05-10T06:51:35.506Z,0.7205
2023-05-10T07:01:35.051Z,0.7352
2023-05-10T07:11:34.967Z,0.7499
2023-05-10T07:21:35.282Z,0.7646
2023-05-10T07:31:35.036Z,0.7794
2023-05-10T07:41:36.005Z,0.7941
2023-05-10T07:51:35.565Z,0.8088
2023-05-10T08:01:35.200Z,0.8235
2023-05-10T08:11:35.374Z,0.8382
2023-05-10T08:21:35.021Z,0.8530
2023-05-10T08:31:35.008Z,0.8677
2023-05-10T08:41:35.138Z,0.8824
2023-05-10T08:51:35.194Z,0.8971
2023-05-10T09:01:35.005Z,0.9119
2023-05-10T09:11:34.985Z,0.9266
2023-05-10T09:21:35.051Z,0.9413
2023-05-10T09:31:35.067Z,0.9560
2023-05-10T09:41:34.975Z,0.9707
2023-05-10T09:51:36.650Z,0.9855
2023-05-10T10:01:35.635Z,1.0002
2023-05-10T10:11:35.029Z,1.0149
2023-05-10T10:21:35.150Z,1.0296
2023-05-10T10:31:35.089Z,1.0444
2023-05-10T10:41:35.000Z,1.0591
2023-05-10T10:51:34.978Z,1.0738
2023-05-10T11:01:35.031Z,1.0885
2023-05-10T11:11:35.236Z,1.1032
2023-05-10T11:21:35.042Z,1.1180
2023-05-10T11:31:35.054Z,1.1327
2023-05-10T11:41:35.043Z,1.1474
2023-05-10T11:51:35.187Z,1.1621
2023-05-10T12:01:35.022Z,1.1769
2023-05-10T12:11:35.024Z,1.1916
2023-05-10T12:21:34.989Z,1.2063
2023-05-10T12:31:35.061Z,1.2210
2023-05-10T12:41:35.091Z,1.2357
2023-05-10T12:51:35.110Z,1.2505
2023-05-10T13:01:35.617Z,1.2652
2023-05-10T13:11:35.069Z,1.2799
2023-05-10T13:21:35.655Z,1.2946
2023-05-10T13:31:35.136Z,1.3094
2023-05-10T13:41:35.551Z,1.3241
2023-05-10T13:51:35.180Z,1.3388
2023-05-10T14:01:35.093Z,1.3535
2023-05-10T14:11:35.106Z,1.3682
2023-05-10T14:21:35.387Z,1.3830
2023-05-10T14:31:35.018Z,1.3977
2023-05-10T14:41:35.095Z,1.4124
2023-05-10T14:51:35.448Z,1.4271
2023-05-10T15:01:35.254Z,1.4419
2023-05-10T15:11:35.067Z,1.4566
2023-05-10T15:21:35.292Z,1.4713
2023-05-10T15:31:36.195Z,1.4860
2023-05-10T15:41:36.569Z,1.5007
2023-05-10T15:51:36.766Z,1.5155
2023-05-10T16:01:35.971Z,1.5302
2023-05-10T16:11:36.658Z,1.5449
2023-05-10T16:21:35.167Z,1.5596
2023-05-10T16:31:35.356Z,1.5744
2023-05-10T16:41:35.156Z,1.5891
2023-05-10T16:51:35.178Z,1.6038
2023-05-10T17:01:35.588Z,1.6192
2023-05-10T17:11:35.079Z,1.6354
2023-05-10T17:21:35.144Z,1.6524
2023-05-10T17:31:35.240Z,1.6695
2023-05-10T17:41:35.124Z,1.6866
2023-05-10T17:51:35.106Z,1.7036
2023-05-10T18:01:35.113Z,1.7207
2023-05-10T18:11:35.802Z,1.7378
2023-05-10T18:21:35.120Z,1.7550
2023-05-10T18:31:35.341Z,1.7722
2023-05-10T18:41:35.294Z,1.7895
2023-05-10T18:51:35.814Z,1.8067
2023-05-10T19:01:35.159Z,1.8239
2023-05-10T19:11:35.162Z,1.8411
2023-05-10T19:21:35.060Z,1.8583
2023-05-10T19:31:35.265Z,1.8756
2023-05-10T19:41:35.087Z,1.8928
2023-05-10T19:51:35.054Z,1.9100
2023-05-10T20:01:35.511Z,1.9272
2023-05-10T20:11:35.153Z,1.9445
2023-05-10T20:21:35.489Z,1.9617
2023-05-10T20:31:35.601Z,1.9789
2023-05-10T20:41:35.279Z,1.9961
2023-05-10T20:51:35.551Z,2.0133
2023-05-10T21:01:35.351Z,2.0306
2023-05-10T21:11:36.182Z,2.0478
2023-05-10T21:21:35.342Z,2.0650
2023-05-10T21:31:35.170Z,2.0822
2023-05-10T21:41:35.931Z,2.0995
2023-05-10T21:51:35.673Z,2.1167
2023-05-10T22:01:35.372Z,0.0007
2023-05-10T22:11:35.273Z,0.0007
2023-05-10T22:21:35.464Z,0.0007
2023-05-10T22:31:35.847Z,0.0007
2023-05-10T22:41:35.450Z,0.0007
2023-05-10T22:51:35.335Z,0.0007
2023-05-10T23:01:36.653Z,0.0007
2023-05-10T23:11:35.940Z,0.0007
2023-05-10T23:21:35.736Z,0.0007
2023-05-10T23:31:38.620Z,0.0007
2023-05-10T23:41:36.720Z,0.0007
2023-05-10T23:51:38.845Z,0.0007
